createdAt,value
2018-09-14T00:00:19.498Z,98142.08
2018-09-14T00:02:48.888Z,98137.50
2018-09-14T00:05:18.182Z,98136.69
2018-09-14T00:07:47.485Z,98139.09
2018-09-14T00:10:16.721Z,98134.26
2018-09-14T00:12:45.944Z,98140.17
2018-09-14T00:15:15.156Z,98132.68
2018-09-14T00:17:44.419Z,98134.80
2018-09-14T00:20:13.698Z,98136.15
2018-09-14T00:22:42.969Z,98136.15
2018-09-14T00:25:12.210Z,98132.94
2018-09-14T00:27:41.475Z,98137.50
2018-09-14T00:30:10.782Z,98140.98
2018-09-14T00:32:40.036Z,98134.55
2018-09-14T00:35:09.282Z,98132.39
2018-09-14T00:37:38.570Z,98130.52
2018-09-14T00:40:08.165Z,98127.03
2018-09-14T00:42:37.558Z,98134.80
2018-09-14T00:45:07.523Z,98128.34
2018-09-14T00:47:36.806Z,98126.75
2018-09-14T00:50:06.776Z,98123.26
2018-09-14T00:52:36.013Z,98121.70
2018-09-14T00:55:05.362Z,98123.58
2018-09-14T00:57:34.667Z,98125.72
2018-09-14T01:00:04.110Z,98122.48
2018-09-14T01:02:33.436Z,98126.81
2018-09-14T01:05:02.764Z,98121.45
2018-09-14T01:07:32.174Z,98128.14
2018-09-14T01:10:01.498Z,98124.66
2018-09-14T01:12:30.750Z,98126.24
2018-09-14T01:15:00.129Z,98132.70
2018-09-14T01:17:29.443Z,98127.88
2018-09-14T01:19:58.749Z,98124.64
2018-09-14T01:22:28.042Z,98129.22
2018-09-14T01:24:57.326Z,98127.34
2018-09-14T01:27:26.578Z,98127.59
2018-09-14T01:29:55.874Z,98127.08
2018-09-14T01:32:25.166Z,98129.23
2018-09-14T01:34:54.508Z,98125.47
2018-09-14T01:37:23.826Z,98125.23
2018-09-14T01:39:53.105Z,98122.80
2018-09-14T01:42:22.444Z,98122.55
2018-09-14T01:44:51.729Z,98124.70
2018-09-14T01:47:21.047Z,98118.78
2018-09-14T01:49:50.308Z,98124.16
2018-09-14T01:52:19.375Z,98122.27
2018-09-14T01:54:48.679Z,98119.06
2018-09-14T01:57:18.049Z,98119.84
2018-09-14T01:59:47.318Z,98116.64
2018-09-14T02:02:16.698Z,98117.45
2018-09-14T02:04:46.057Z,98117.16
2018-09-14T02:07:15.350Z,98111.53
2018-09-14T02:09:44.634Z,98111.80
2018-09-14T02:12:13.894Z,98114.78
2018-09-14T02:14:43.232Z,98105.63
2018-09-14T02:17:12.539Z,98100.28
2018-09-14T02:19:41.942Z,98102.96
2018-09-14T02:22:11.386Z,98100.00
2018-09-14T02:24:40.686Z,98093.02
2018-09-14T02:27:10.057Z,98094.66
2018-09-14T02:29:39.715Z,98094.13
2018-09-14T02:32:09.104Z,98096.77
2018-09-14T02:34:38.373Z,98092.77
2018-09-14T02:37:07.734Z,98093.02
2018-09-14T02:39:37.004Z,98095.16
2018-09-14T02:42:06.482Z,98086.85
2018-09-14T02:44:35.734Z,98095.45
2018-09-14T02:47:05.030Z,98096.48
2018-09-14T02:49:34.305Z,98088.73
2018-09-14T02:52:03.729Z,98089.83
2018-09-14T02:54:32.991Z,98087.67
2018-09-14T02:57:02.239Z,98091.17
2018-09-14T02:59:31.479Z,98090.63
2018-09-14T03:02:00.802Z,98087.13
2018-09-14T03:04:30.070Z,98088.45
2018-09-14T03:06:59.359Z,98079.06
2018-09-14T03:09:28.788Z,98089.54
2018-09-14T03:11:58.078Z,98089.28
2018-09-14T03:14:27.559Z,98085.25
2018-09-14T03:16:56.811Z,98088.22
2018-09-14T03:19:26.115Z,98084.19
2018-09-14T03:21:55.465Z,98085.26
2018-09-14T03:24:24.789Z,98089.25
2018-09-14T03:26:54.090Z,98089.01
2018-09-14T03:29:23.463Z,98088.73
2018-09-14T03:31:52.728Z,98093.27
2018-09-14T03:34:22.075Z,98091.66
2018-09-14T03:36:51.402Z,98093.28
2018-09-14T03:39:20.785Z,98098.92
2018-09-14T03:41:50.076Z,98098.09
2018-09-14T03:44:19.397Z,98101.60
2018-09-14T03:46:48.701Z,98092.48
2018-09-14T03:49:24.558Z,98091.41
2018-09-14T03:51:53.918Z,98096.23
2018-09-14T03:54:23.225Z,98095.14
2018-09-14T03:56:52.530Z,98089.52
2018-09-14T03:59:21.899Z,98091.64
2018-09-14T04:01:51.332Z,98084.97
2018-09-14T04:04:20.685Z,98090.05
2018-09-14T04:06:50.204Z,98092.73
2018-09-14T04:09:19.491Z,98087.09
2018-09-14T04:11:48.884Z,98098.11
2018-09-14T04:14:18.405Z,98093.81
2018-09-14T04:16:47.699Z,98091.12
2018-09-14T04:19:17.122Z,98093.00
2018-09-14T04:21:46.401Z,98087.91
2018-09-14T04:24:15.708Z,98089.51
2018-09-14T04:26:44.992Z,98090.30
2018-09-14T04:29:14.312Z,98090.31
2018-09-14T04:31:43.650Z,98103.46
2018-09-14T04:34:12.989Z,98087.39
2018-09-14T04:36:42.266Z,98092.20
2018-09-14T04:39:11.646Z,98091.12
2018-09-14T04:41:40.927Z,98098.92
2018-09-14T04:44:10.252Z,98103.73
2018-09-14T04:46:39.481Z,98104.27
2018-09-14T04:49:08.727Z,98102.13
2018-09-14T04:51:38.092Z,98103.48
2018-09-14T04:54:07.365Z,98107.48
2018-09-14T04:56:36.582Z,98114.20
2018-09-14T04:59:05.914Z,98117.95
2018-09-14T05:01:35.183Z,98111.00
2018-09-14T05:04:04.442Z,98110.98
2018-09-14T05:06:33.706Z,98115.83
2018-09-14T05:09:02.913Z,98123.05
2018-09-14T05:11:32.133Z,98119.03
2018-09-14T05:14:01.412Z,98130.33
2018-09-14T05:16:30.919Z,98126.84
2018-09-14T05:19:00.236Z,98122.27
2018-09-14T05:21:31.849Z,98127.88
2018-09-14T05:24:01.171Z,98126.02
2018-09-14T05:26:30.650Z,98139.98
2018-09-14T05:28:59.886Z,98132.98
2018-09-14T05:31:29.150Z,98129.49
2018-09-14T05:33:58.366Z,98130.55
2018-09-14T05:36:27.638Z,98135.11
2018-09-14T05:38:57.072Z,98134.57
2018-09-14T05:41:26.370Z,98135.91
2018-09-14T05:43:55.882Z,98135.91
2018-09-14T05:46:25.234Z,98141.81
2018-09-14T05:48:54.537Z,98132.69
2018-09-14T05:51:23.825Z,98141.52
2018-09-14T05:53:53.587Z,98146.08
2018-09-14T05:56:23.282Z,98145.81
2018-09-14T05:58:52.644Z,98155.99
2018-09-14T06:01:22.559Z,98155.42
2018-09-14T06:03:53.228Z,98158.66
2018-09-14T06:06:22.652Z,98155.95
2018-09-14T06:08:51.962Z,98162.94
2018-09-14T06:11:21.261Z,98161.30
2018-09-14T06:13:51.363Z,98160.24
2018-09-14T06:16:20.690Z,98156.73
2018-09-14T06:18:50.055Z,98158.09
2018-09-14T06:21:19.379Z,98163.72
2018-09-14T06:23:49.679Z,98163.44
2018-09-14T06:26:18.954Z,98165.61
2018-09-14T06:28:48.221Z,98160.72
2018-09-14T06:31:17.579Z,98166.84
2018-09-14T06:33:46.881Z,98167.20
2018-09-14T06:36:16.237Z,98168.00
2018-09-14T06:38:45.548Z,98167.44
2018-09-14T06:41:14.878Z,98162.86
2018-09-14T06:43:44.218Z,98162.59
2018-09-14T06:46:13.517Z,98161.50
2018-09-14T06:48:42.797Z,98164.40
2018-09-14T06:51:12.054Z,98166.45
2018-09-14T06:53:41.386Z,98163.50
2018-09-14T06:56:10.660Z,98172.44
2018-09-14T06:58:39.986Z,98165.98
2018-09-14T07:01:09.400Z,98164.45
2018-09-14T07:03:38.696Z,98168.18
2018-09-14T07:06:08.043Z,98163.03
2018-09-14T07:08:37.380Z,98166.57
2018-09-14T07:11:06.615Z,98166.55
2018-09-14T07:13:35.941Z,98170.73
2018-09-14T07:16:05.193Z,98176.07
2018-09-14T07:18:34.617Z,98170.72
2018-09-14T07:21:04.033Z,98173.33
2018-09-14T07:23:33.341Z,98173.11
2018-09-14T07:26:02.557Z,98173.06
2018-09-14T07:28:31.796Z,98175.67
2018-09-14T07:31:01.042Z,98183.23
2018-09-14T07:33:30.277Z,98182.28
2018-09-14T07:35:59.509Z,98190.03
2018-09-14T07:38:28.787Z,98186.11
2018-09-14T07:40:58.087Z,98184.00
2018-09-14T07:43:27.458Z,98184.52
2018-09-14T07:45:56.812Z,98187.73
2018-09-14T07:48:26.192Z,98188.20
2018-09-14T07:50:55.412Z,98196.22
2018-09-14T07:53:24.681Z,98188.37
2018-09-14T07:55:54.024Z,98193.51
2018-09-14T07:58:23.329Z,98193.28
2018-09-14T08:00:52.614Z,98193.28
2018-09-14T08:03:22.151Z,98193.05
2018-09-14T08:05:51.420Z,98204.06
2018-09-14T08:08:20.698Z,98203.23
2018-09-14T08:10:49.953Z,98200.81
2018-09-14T08:13:19.322Z,98207.37
2018-09-14T08:15:48.549Z,98211.38
2018-09-14T08:18:17.829Z,98212.70
2018-09-14T08:20:47.186Z,98213.21
2018-09-14T08:23:16.458Z,98213.21
2018-09-14T08:25:45.735Z,98213.75
2018-09-14T08:28:15.012Z,98215.66
2018-09-14T08:30:44.350Z,98224.32
2018-09-14T08:33:13.630Z,98228.62
2018-09-14T08:35:42.955Z,98219.16
2018-09-14T08:38:12.234Z,98216.92
2018-09-14T08:40:41.529Z,98223.38
2018-09-14T08:43:10.803Z,98224.03
2018-09-14T08:45:40.131Z,98230.83
2018-09-14T08:48:09.406Z,98227.97
2018-09-14T08:50:38.731Z,98227.94
2018-09-14T08:53:08.122Z,98232.95
2018-09-14T08:55:37.444Z,98236.84
2018-09-14T08:58:07.006Z,98238.09
2018-09-14T09:00:36.192Z,98232.65
2018-09-14T09:03:05.534Z,98244.91
2018-09-14T09:05:34.818Z,98242.56
2018-09-14T09:08:04.150Z,98241.67
2018-09-14T09:10:33.887Z,98238.75
2018-09-14T09:13:03.254Z,98235.16
2018-09-14T09:15:32.581Z,98236.84
2018-09-14T09:18:01.830Z,98232.74
2018-09-14T09:20:31.129Z,98239.98
2018-09-14T09:23:00.442Z,98245.55
2018-09-14T09:25:29.743Z,98239.22
2018-09-14T09:27:59.049Z,98239.92
2018-09-14T09:30:28.349Z,98247.70
2018-09-14T09:32:57.607Z,98246.22
2018-09-14T09:35:26.985Z,98250.19
2018-09-14T09:37:56.282Z,98245.06
2018-09-14T09:40:25.543Z,98247.06
2018-09-14T09:42:54.918Z,98242.88
2018-09-14T09:45:24.271Z,98250.68
2018-09-14T09:47:53.573Z,98247.05
2018-09-14T09:50:22.914Z,98238.59
2018-09-14T09:52:52.175Z,98239.75
2018-09-14T09:55:21.533Z,98243.03
2018-09-14T09:57:50.826Z,98246.33
2018-09-14T10:00:25.402Z,98243.64
2018-09-14T10:02:59.989Z,98242.29
2018-09-14T10:05:34.540Z,98242.03
2018-09-14T10:08:03.842Z,98243.38
2018-09-14T10:10:33.191Z,98244.95
2018-09-14T10:13:02.531Z,98241.73
2018-09-14T10:15:31.945Z,98242.52
2018-09-14T10:18:01.239Z,98238.59
2018-09-14T10:20:30.591Z,98240.78
2018-09-14T10:22:59.865Z,98241.55
2018-09-14T10:25:29.121Z,98242.30
2018-09-14T10:27:58.454Z,98242.77
2018-09-14T10:30:27.729Z,98242.62
2018-09-14T10:32:56.980Z,98242.53
2018-09-14T10:35:26.340Z,98237.41
2018-09-14T10:37:55.743Z,98234.83
2018-09-14T10:40:25.028Z,98237.96
2018-09-14T10:42:54.482Z,98232.16
2018-09-14T10:45:23.838Z,98232.71
2018-09-14T10:47:53.391Z,98230.06
2018-09-14T10:50:22.675Z,98232.08
2018-09-14T10:52:52.086Z,98225.39
2018-09-14T10:55:21.388Z,98223.62
2018-09-14T10:57:50.662Z,98218.60
2018-09-14T11:00:19.941Z,98226.95
2018-09-14T11:02:49.222Z,98229.55
2018-09-14T11:05:18.498Z,98229.20
2018-09-14T11:07:48.562Z,98223.61
2018-09-14T11:10:17.847Z,98223.05
2018-09-14T11:12:47.189Z,98221.11
2018-09-14T11:15:16.478Z,98218.54
2018-09-14T11:17:45.802Z,98218.75
2018-09-14T11:20:15.058Z,98216.97
2018-09-14T11:22:44.398Z,98214.15
2018-09-14T11:25:13.709Z,98219.05
2018-09-14T11:27:43.010Z,98218.18
2018-09-14T11:30:12.314Z,98211.10
2018-09-14T11:32:41.618Z,98202.23
2018-09-14T11:35:10.910Z,98203.78
2018-09-14T11:37:40.283Z,98200.98
2018-09-14T11:40:09.595Z,98196.92
2018-09-14T11:42:38.857Z,98197.45
2018-09-14T11:45:08.216Z,98197.41
2018-09-14T11:47:37.521Z,98200.17
2018-09-14T11:50:06.860Z,98201.46
2018-09-14T11:52:36.321Z,98201.11
2018-09-14T11:55:06.611Z,98196.17
2018-09-14T11:57:35.936Z,98197.05
2018-09-14T12:00:05.274Z,98191.86
2018-09-14T12:02:34.617Z,98191.70
2018-09-14T12:05:03.929Z,98192.25
2018-09-14T12:07:37.181Z,98191.11
2018-09-14T12:10:06.951Z,98192.52
2018-09-14T12:12:36.310Z,98188.41
2018-09-14T12:15:05.686Z,98196.77
2018-09-14T12:17:35.099Z,98191.09
2018-09-14T12:20:04.374Z,98183.27
2018-09-14T12:22:33.809Z,98187.61
2018-09-14T12:25:03.154Z,98178.75
2018-09-14T12:27:35.441Z,98176.12
2018-09-14T12:30:04.833Z,98171.91
2018-09-14T12:32:34.186Z,98176.66
2018-09-14T12:35:03.639Z,98169.02
2018-09-14T12:37:32.887Z,98168.57
2018-09-14T12:40:02.226Z,98165.58
2018-09-14T12:42:31.586Z,98166.34
2018-09-14T12:45:00.992Z,98158.95
2018-09-14T12:47:30.212Z,98161.16
2018-09-14T12:49:59.475Z,98159.65
2018-09-14T12:52:28.745Z,98158.15
2018-09-14T12:54:58.026Z,98156.09
2018-09-14T12:57:27.295Z,98163.34
2018-09-14T12:59:56.682Z,98154.53
2018-09-14T13:02:25.970Z,98151.25
2018-09-14T13:04:55.243Z,98149.84
2018-09-14T13:07:24.466Z,98150.55
2018-09-14T13:09:53.766Z,98154.41
2018-09-14T13:12:23.113Z,98160.06
2018-09-14T13:14:52.509Z,98154.77
2018-09-14T13:17:21.785Z,98156.02
2018-09-14T13:19:51.145Z,98148.69
2018-09-14T13:22:20.530Z,98148.58
2018-09-14T13:24:49.878Z,98149.09
2018-09-14T13:27:19.144Z,98148.33
2018-09-14T13:29:48.418Z,98139.56
2018-09-14T13:32:17.886Z,98141.05
2018-09-14T13:34:47.174Z,98141.81
2018-09-14T13:37:16.423Z,98130.52
2018-09-14T13:39:45.802Z,98134.29
2018-09-14T13:42:15.086Z,98137.40
2018-09-14T13:44:44.513Z,98131.48
2018-09-14T13:47:13.887Z,98123.12
2018-09-14T13:49:43.228Z,98126.48
2018-09-14T13:52:12.567Z,98123.82
2018-09-14T13:54:41.918Z,98122.96
2018-09-14T13:57:11.280Z,98125.87
2018-09-14T13:59:40.554Z,98125.34
2018-09-14T14:02:10.291Z,98122.70
2018-09-14T14:04:39.606Z,98123.22
2018-09-14T14:07:08.871Z,98119.94
2018-09-14T14:09:38.165Z,98121.81
2018-09-14T14:12:07.407Z,98116.49
2018-09-14T14:14:36.729Z,98120.97
2018-09-14T14:17:06.059Z,98115.70
2018-09-14T14:19:35.290Z,98115.44
2018-09-14T14:22:04.575Z,98119.34
2018-09-14T14:24:33.959Z,98117.55
2018-09-14T14:27:03.478Z,98114.80
2018-09-14T14:29:32.737Z,98114.19
2018-09-14T14:32:02.045Z,98110.73
2018-09-14T14:34:31.255Z,98114.06
2018-09-14T14:37:00.570Z,98116.03
2018-09-14T14:39:29.895Z,98112.70
2018-09-14T14:41:59.211Z,98104.47
2018-09-14T14:44:28.469Z,98109.66
2018-09-14T14:46:57.725Z,98108.56
2018-09-14T14:49:27.025Z,98104.34
2018-09-14T14:51:56.254Z,98112.78
2018-09-14T14:54:25.553Z,98113.19
2018-09-14T14:56:54.836Z,98110.76
2018-09-14T14:59:24.224Z,98104.81
2018-09-14T15:01:53.476Z,98103.98
2018-09-14T15:04:22.769Z,98108.32
2018-09-14T15:06:52.121Z,98107.47
2018-09-14T15:09:21.378Z,98104.99
2018-09-14T15:11:50.632Z,98100.81
2018-09-14T15:14:19.934Z,98099.32
2018-09-14T15:16:49.221Z,98099.47
2018-09-14T15:19:18.585Z,98089.94
2018-09-14T15:21:47.864Z,98089.13
2018-09-14T15:24:17.174Z,98094.55
2018-09-14T15:26:46.472Z,98099.80
2018-09-14T15:29:16.387Z,98096.41
2018-09-14T15:31:45.758Z,98098.19
2018-09-14T15:34:15.077Z,98097.31
2018-09-14T15:36:44.336Z,98099.58
2018-09-14T15:39:14.006Z,98100.45
2018-09-14T15:41:43.361Z,98095.84
2018-09-14T15:44:12.553Z,98098.35
2018-09-14T15:46:41.855Z,98089.69
2018-09-14T15:49:11.168Z,98093.42
2018-09-14T15:51:40.684Z,98096.74
2018-09-14T15:54:09.988Z,98099.81
2018-09-14T15:56:39.257Z,98107.76
2018-09-14T15:59:08.540Z,98100.53
2018-09-14T16:01:37.846Z,98107.38
2018-09-14T16:04:07.363Z,98105.84
2018-09-14T16:06:36.635Z,98107.06
2018-09-14T16:09:08.950Z,98100.72
2018-09-14T16:11:38.181Z,98106.41
2018-09-14T16:14:07.791Z,98107.95
2018-09-14T16:16:38.362Z,98106.09
2018-09-14T16:19:07.674Z,98110.75
2018-09-14T16:21:36.960Z,98108.98
2018-09-14T16:24:06.379Z,98108.70
2018-09-14T16:26:35.647Z,98110.41
2018-09-14T16:29:05.002Z,98113.20
2018-09-14T16:31:34.478Z,98114.45
2018-09-14T16:34:03.701Z,98121.56
2018-09-14T16:36:33.071Z,98111.78
2018-09-14T16:39:02.665Z,98105.81
2018-09-14T16:41:39.290Z,98106.27
2018-09-14T16:44:09.540Z,98100.77
2018-09-14T16:46:40.747Z,98105.84
2018-09-14T16:49:11.587Z,98109.78
2018-09-14T16:51:42.756Z,98113.57
2018-09-14T16:54:13.751Z,98110.00
2018-09-14T16:56:44.689Z,98105.23
2018-09-14T16:59:14.936Z,98098.61
2018-09-14T17:01:45.155Z,98096.72
2018-09-14T17:04:15.385Z,98098.41
2018-09-14T17:06:47.689Z,98103.29
2018-09-14T17:09:20.831Z,98103.34
2018-09-14T17:11:52.466Z,98111.18
2018-09-14T17:14:26.037Z,98115.02
2018-09-14T17:16:58.024Z,98117.72
2018-09-14T17:19:31.394Z,98114.62
2018-09-14T17:22:04.595Z,98117.42
2018-09-14T17:24:36.312Z,98115.81
2018-09-14T17:27:08.440Z,98121.05
2018-09-14T17:29:38.485Z,98117.39
2018-09-14T17:32:11.302Z,98114.23
2018-09-14T17:34:44.005Z,98118.66
2018-09-14T17:37:15.885Z,98117.75
2018-09-14T17:39:47.730Z,98129.21
2018-09-14T17:42:18.666Z,98134.44
2018-09-14T17:44:52.988Z,98143.48
2018-09-14T17:47:24.617Z,98145.17
2018-09-14T17:49:57.081Z,98147.59
2018-09-14T17:52:28.461Z,98149.48
2018-09-14T17:55:00.307Z,98148.09
2018-09-14T17:57:30.398Z,98144.53
2018-09-14T18:00:00.801Z,98147.27
2018-09-14T18:02:30.538Z,98140.79
2018-09-14T18:05:00.309Z,98146.72
2018-09-14T18:07:29.879Z,98149.64
2018-09-14T18:10:00.132Z,98154.55
2018-09-14T18:12:31.088Z,98159.40
2018-09-14T18:15:00.863Z,98161.73
2018-09-14T18:17:30.329Z,98163.34
2018-09-14T18:20:00.044Z,98161.82
2018-09-14T18:22:29.694Z,98167.55
2018-09-14T18:25:00.935Z,98169.44
2018-09-14T18:27:30.871Z,98169.47
2018-09-14T18:30:00.674Z,98169.20
2018-09-14T18:32:30.333Z,98170.88
2018-09-14T18:35:01.099Z,98169.56
2018-09-14T18:37:30.676Z,98174.97
2018-09-14T18:40:00.516Z,98172.55
2018-09-14T18:42:31.697Z,98173.91
2018-09-14T18:45:05.374Z,98172.09
2018-09-14T18:47:34.901Z,98175.92
2018-09-14T18:50:05.277Z,98171.61
2018-09-14T18:52:38.719Z,98178.89
2018-09-14T18:55:08.848Z,98178.16
2018-09-14T18:57:39.303Z,98182.20
2018-09-14T19:00:11.932Z,98181.94
2018-09-14T19:02:43.731Z,98191.41
2018-09-14T19:05:13.144Z,98190.59
2018-09-14T19:07:42.397Z,98189.80
2018-09-14T19:10:13.458Z,98194.95
2018-09-14T19:12:42.883Z,98194.72
2018-09-14T19:15:24.167Z,98195.56
2018-09-14T19:17:54.106Z,98201.23
2018-09-14T19:20:23.386Z,98198.57
2018-09-14T19:22:57.370Z,98206.39
2018-09-14T19:25:27.465Z,98200.45
2018-09-14T19:28:00.862Z,98204.57
2018-09-14T19:30:30.502Z,98200.33
2018-09-14T19:32:59.980Z,98212.45
2018-09-14T19:35:33.815Z,98212.75
2018-09-14T19:38:05.316Z,98212.78
2018-09-14T19:40:34.748Z,98215.20
2018-09-14T19:43:04.062Z,98210.91
2018-09-14T19:45:33.349Z,98210.36
2018-09-14T19:48:02.648Z,98214.16
2018-09-14T19:50:31.954Z,98215.23
2018-09-14T19:53:01.285Z,98215.54
2018-09-14T19:55:30.555Z,98210.75
2018-09-14T19:57:59.892Z,98204.83
2018-09-14T20:00:29.404Z,98201.87
2018-09-14T20:02:58.738Z,98209.71
2018-09-14T20:05:28.055Z,98213.23
2018-09-14T20:07:57.405Z,98214.08
2018-09-14T20:10:26.909Z,98212.19
2018-09-14T20:12:56.294Z,98210.84
2018-09-14T20:15:25.574Z,98207.08
2018-09-14T20:17:54.958Z,98215.66
2018-09-14T20:20:24.280Z,98214.37
2018-09-14T20:22:53.679Z,98215.45
2018-09-14T20:25:23.455Z,98216.52
2018-09-14T20:27:52.799Z,98218.13
2018-09-14T20:30:22.097Z,98220.85
2018-09-14T20:32:51.354Z,98215.73
2018-09-14T20:35:20.598Z,98213.88
2018-09-14T20:37:49.907Z,98213.34
2018-09-14T20:40:19.218Z,98206.38
2018-09-14T20:42:48.499Z,98210.16
2018-09-14T20:45:17.775Z,98206.15
2018-09-14T20:47:47.076Z,98202.66
2018-09-14T20:50:16.330Z,98208.03
2018-09-14T20:52:45.619Z,98207.25
2018-09-14T20:55:14.889Z,98203.76
2018-09-14T20:57:44.297Z,98203.48
2018-09-14T21:00:17.214Z,98206.98
2018-09-14T21:02:47.226Z,98205.91
2018-09-14T21:05:16.586Z,98208.59
2018-09-14T21:07:45.910Z,98208.30
2018-09-14T21:10:15.233Z,98209.14
2018-09-14T21:12:44.566Z,98207.78
2018-09-14T21:15:13.861Z,98201.89
2018-09-14T21:17:43.244Z,98199.48
2018-09-14T21:20:12.517Z,98199.20
2018-09-14T21:22:42.277Z,98198.96
2018-09-14T21:25:11.520Z,98201.38
2018-09-14T21:27:40.823Z,98204.92
2018-09-14T21:30:10.126Z,98205.75
2018-09-14T21:32:39.475Z,98206.55
2018-09-14T21:35:08.746Z,98207.90
2018-09-14T21:37:38.031Z,98205.72
2018-09-14T21:40:07.366Z,98205.16
2018-09-14T21:42:36.631Z,98211.34
2018-09-14T21:45:06.070Z,98210.00
2018-09-14T21:47:35.415Z,98214.04
2018-09-14T21:50:04.734Z,98217.51
2018-09-14T21:52:33.958Z,98218.86
2018-09-14T21:55:03.276Z,98226.91
2018-09-14T21:57:32.550Z,98223.17
2018-09-14T22:00:05.874Z,98226.13
2018-09-14T22:02:35.315Z,98231.23
2018-09-14T22:05:04.778Z,98235.49
2018-09-14T22:07:39.026Z,98228.77
2018-09-14T22:10:08.809Z,98225.28
2018-09-14T22:12:38.034Z,98223.12
2018-09-14T22:15:07.371Z,98224.52
2018-09-14T22:17:36.628Z,98229.12
2018-09-14T22:20:06.243Z,98228.87
2018-09-14T22:22:35.519Z,98231.28
2018-09-14T22:25:04.830Z,98224.06
2018-09-14T22:27:34.094Z,98231.33
2018-09-14T22:30:03.379Z,98231.66
2018-09-14T22:32:32.602Z,98233.28
2018-09-14T22:35:01.887Z,98235.43
2018-09-14T22:37:31.346Z,98237.84
2018-09-14T22:40:00.627Z,98243.49
2018-09-14T22:42:29.847Z,98249.39
2018-09-14T22:44:59.092Z,98247.21
2018-09-14T22:47:28.319Z,98254.20
2018-09-14T22:49:57.606Z,98257.16
2018-09-14T22:52:26.839Z,98260.36
2018-09-14T22:54:56.124Z,98256.60
2018-09-14T22:57:25.328Z,98259.84
2018-09-14T22:59:54.693Z,98263.36
2018-09-14T23:02:23.961Z,98261.47
2018-09-14T23:04:53.288Z,98260.42
2018-09-14T23:07:22.524Z,98263.39
2018-09-14T23:09:51.787Z,98257.74
2018-09-14T23:12:21.057Z,98265.00
2018-09-14T23:14:50.323Z,98265.02
2018-09-14T23:17:19.577Z,98259.90
2018-09-14T23:19:48.781Z,98261.52
2018-09-14T23:22:18.002Z,98262.88
2018-09-14T23:24:47.254Z,98265.81
2018-09-14T23:27:16.521Z,98269.33
2018-09-14T23:29:45.746Z,98267.95
2018-09-14T23:32:15.085Z,98269.28
2018-09-14T23:34:44.277Z,98265.78
2018-09-14T23:37:13.918Z,98266.05
2018-09-14T23:39:43.162Z,98265.23
2018-09-14T23:42:12.416Z,98261.44
2018-09-14T23:44:41.729Z,98262.79
2018-09-14T23:47:11.030Z,98273.81
2018-09-14T23:49:40.317Z,98275.11
2018-09-14T23:52:09.562Z,98274.57
2018-09-14T23:54:38.786Z,98273.52
2018-09-14T23:57:08.031Z,98278.32
2018-09-14T23:59:37.263Z,98279.93
